Phillipsburg, MO (65722)

10:10 AM CDT on September 16, 2014 (GMT -0500)
S. Newport, Conway | Change Station
CLOSE
Current Station
Personal Weather Station
Location: Conway, MO
Elevation: 1394 ft
Nearby Weather Stations

Elev 1394 ft 37.50 °N, 92.83 °W | Updated 12 seconds ago

Overcast
Overcast
60.3 °F
Feels Like 60.3 °F
N
1.6
Wind Variable Wind from East
Gusts 5.4 mph

Today
High -- | Low -- °F
--% Chance of Precip.
Yesterday
High -- | Low -- °F
Precip. -- in
6:53 AM 7:17 PM
Last Quarter, 45% visible
Pressure 30.23 in
Visibility 10.0 miles
Clouds Overcast 600 ft
Dew Point 58 °F
Humidity 92%
Rainfall 0.00 in
Snow Depth Not available.
UV 1 out of 12
Pollen 6.30 out of 12
Air Quality Not available.
Flu Activity Not available.
METAR KH21 161455Z AUTO 02004KT 10SM OVC006 14/12 A3023 RMK AO2

More Conditions Fewer Conditions

Pressure 30.23 in
Visibility 10.0 miles
Clouds Overcast 600 ft
Dew Point 58 °F
Humidity 92%
Rainfall 0.00 in
Snow Depth Not available.
UV 1 out of 12
Pollen 6.30 out of 12
Air Quality Not available.
Flu Activity Not available.
METAR KH21 161455Z AUTO 02004KT 10SM OVC006 14/12 A3023 RMK AO2

More Conditions Fewer Conditions

10-Day Weather Forecast

Almanac

Astronomy

Sep. 16, 2014 Rise Set
Actual Time 6:53 AM CDT 7:17 PM CDT
Civil Twilight 6:27 AM CDT 7:43 PM CDT
Nautical Twilight 5:56 AM CDT 8:14 PM CDT
Astronomical Twilight 5:25 AM CDT 8:45 PM CDT
Moon 12:09 AM CDT 2:36 PM CDT
Length of Visible Light 13h 15m
Length of Day
12h 23m
Tomorrow will be 2m 23s shorter.
Last Quarter, 45% of the Moon is Illuminated
Today
Last Quarter
Sep 24
New
Oct 1
First Quarter
Oct 8
Full
Oct 15
Last Quarter

Today's Extremes

State Highs State Lows

Community

WunderPhotos

Upload Photos

1,753,806 photos uploaded!

Nearby

Snow Depth

Station Depth Elevation
No new snow has been reported.

Earthquake Activity

City Distance Mag. Time & Date
No recent earthquake activity has been reported nearby.
Minimum magnitude displayed is 2.5.

Coastal Water Temperatures

Place Temperature
No Stations Reporting

Nearby Weather Stations